Airfield :
LOGIN :

Register | Disclaimer

   EN    FR    IT 

 










Legend :    VFR   Marginal VFR   IFR   Intensive IFR   Very Intensive IFR
Visi :
Ceiling :
>= 8 km
>= 3000ft
5 to 8 km
1000 to 3000 ft
1500m to 5 km
500 to 1000 ft
800 to 1500m
200 to 500 ft
< 800m
< 200 ft
Symbols :   Thunderstorms  Fog  Heavy snow  Heavy precipitations  Wind > 20 kt
SIGMETs :     Misc.  Thunderstorms  Icing  Turbulence  Mountain Waves  Volcanic Ashes






- Airport Elevation : 648 ft
- IATA code : INI


LYNI - Nis Constantine

CURRENT METAR :
  • 171930Z VRB08KT 9999 FEW043 13/10 Q1008 NOSIG

EXPIRED METARs :
  • 171900Z 33017KT 9999 FEW043 15/10 Q1008 NOSIG
  • 171830Z 32019KT 9999 FEW033 SCT043 15/10 Q1008 NOSIG
  • 171800Z 31017KT 9999 FEW027 SCT043 16/10 Q1007 NOSIG
  • 171730Z 32016G31KT 9999 FEW027 SCT043 17/12 Q1007 NOSIG
  • 171700Z 20009KT 160V250 9999 FEW040 20/10 Q1005 NOSIG

TAF TAF LYNI
Valid from the 17 at 18:00 until the 18 at 18:00 UTC


171700Z 1718/1818 18008KT 9999 SCT040 TX20/1813Z TN10/1804Z
BECMG 1718/1720 30010KT
TEMPO 1718/1721 32017G30KT 4000 TSRA SCT030CB SCT040



MET'MAP, your aeronautical weather chart ! - Copyright ORBIFLY December 2007 - Disclaimer

ORBIFLY MET'MAP TEAM :

Programming & Development : Alexandra Zaïnal
Concept & original design : Baudouin d'Aumeries
Assistance for programming : Marc-Olivier Méhu
Technical & hardware support : Manuel Goepfert

Contact : metmap@orbifly.com




SOURCES & CREDITS :

   NOAA